createdAt,value
2016-04-06T00:00:41.241Z,0
2016-04-06T00:01:41.213Z,0
2016-04-06T00:02:41.200Z,0
2016-04-06T00:03:41.187Z,0
2016-04-06T00:04:41.159Z,0
2016-04-06T00:05:41.129Z,0
2016-04-06T00:06:41.148Z,0
2016-04-06T00:07:41.104Z,0
2016-04-06T00:08:41.075Z,0
2016-04-06T00:09:41.031Z,0
2016-04-06T00:10:41.017Z,0
2016-04-06T00:11:40.973Z,0
2016-04-06T00:12:40.961Z,0
2016-04-06T00:13:40.963Z,0
2016-04-06T00:14:40.919Z,0
2016-04-06T00:15:40.891Z,0
2016-04-06T00:16:40.861Z,0
2016-04-06T00:17:40.849Z,0
2016-04-06T00:18:40.867Z,0
2016-04-06T00:19:40.792Z,0
2016-04-06T00:20:40.779Z,0
2016-04-06T00:21:40.750Z,0
2016-04-06T00:22:40.738Z,0
2016-04-06T00:23:40.710Z,0
2016-04-06T00:24:40.680Z,0
2016-04-06T00:25:40.668Z,0
2016-04-06T00:26:40.638Z,0
2016-04-06T00:27:40.626Z,0
2016-04-06T00:28:40.644Z,0
2016-04-06T00:29:40.569Z,0
2016-04-06T00:30:40.541Z,0
2016-04-06T00:31:40.513Z,0
2016-04-06T00:32:40.515Z,0
2016-04-06T00:33:40.471Z,0
2016-04-06T00:34:40.442Z,0
2016-04-06T00:35:39.710Z,0
2016-04-06T00:36:40.400Z,0
2016-04-06T00:37:40.387Z,0
2016-04-06T00:38:40.390Z,0
2016-04-06T00:39:40.393Z,0
2016-04-06T00:40:40.302Z,0
2016-04-06T00:41:40.273Z,0
2016-04-06T00:42:40.261Z,0
2016-04-06T00:43:40.263Z,0
2016-04-06T00:44:40.234Z,0
2016-04-06T00:45:40.206Z,0
2016-04-06T00:46:40.192Z,0
2016-04-06T00:47:40.196Z,0
2016-04-06T00:48:40.120Z,0
2016-04-06T00:49:40.108Z,0
2016-04-06T00:50:40.063Z,0
2016-04-06T00:51:40.050Z,0
2016-04-06T00:52:40.022Z,0
2016-04-06T00:53:40.008Z,0
2016-04-06T00:54:39.980Z,0
2016-04-06T00:55:39.982Z,0
2016-04-06T00:56:39.955Z,0
2016-04-06T00:57:39.910Z,0
2016-04-06T00:58:39.882Z,0
2016-04-06T00:59:39.853Z,0
2016-04-06T01:00:39.840Z,0
2016-04-06T01:01:39.812Z,0
2016-04-06T01:02:39.799Z,0
2016-04-06T01:03:39.770Z,0
2016-04-06T01:04:39.757Z,0
2016-04-06T01:05:39.712Z,0
2016-04-06T01:06:39.684Z,0
2016-04-06T01:07:39.687Z,0
2016-04-06T01:08:39.643Z,0
2016-04-06T01:09:39.630Z,0
2016-04-06T01:10:39.601Z,0
2016-04-06T01:11:39.573Z,0
2016-04-06T01:12:39.559Z,0
2016-04-06T01:13:39.531Z,0
2016-04-06T01:14:39.503Z,0
2016-04-06T01:15:39.318Z,0
2016-04-06T01:16:39.462Z,0
2016-04-06T01:17:39.448Z,0
2016-04-06T01:18:39.436Z,0
2016-04-06T01:19:39.406Z,0
2016-04-06T01:20:39.363Z,0
2016-04-06T01:21:39.350Z,0
2016-04-06T01:22:39.321Z,0
2016-04-06T01:23:39.292Z,0
2016-04-06T01:24:39.263Z,0
2016-04-06T01:25:39.252Z,0
2016-04-06T01:26:39.222Z,0
2016-04-06T01:27:39.194Z,0
2016-04-06T01:28:39.181Z,0
2016-04-06T01:29:39.152Z,0
2016-04-06T01:30:39.140Z,0
2016-04-06T01:31:39.095Z,0
2016-04-06T01:32:39.082Z,0
2016-04-06T01:33:39.053Z,0
2016-04-06T01:34:39.025Z,0
2016-04-06T01:35:39.012Z,0
2016-04-06T01:36:38.984Z,0
2016-04-06T01:37:38.955Z,0
2016-04-06T01:38:38.943Z,0
2016-04-06T01:39:38.898Z,0
2016-04-06T01:40:38.901Z,0
2016-04-06T01:41:38.856Z,0
2016-04-06T01:42:38.843Z,0
2016-04-06T01:43:38.831Z,0
2016-04-06T01:44:38.803Z,0
2016-04-06T01:45:38.774Z,0
2016-04-06T01:46:38.745Z,0
2016-04-06T01:47:38.732Z,0
2016-04-06T01:48:38.719Z,0
2016-04-06T01:49:38.675Z,0
2016-04-06T01:50:38.661Z,0
2016-04-06T01:51:38.617Z,0
2016-04-06T01:52:38.605Z,0
2016-04-06T01:53:38.576Z,0
2016-04-06T01:54:38.548Z,0
2016-04-06T01:55:38.535Z,0
2016-04-06T01:56:38.506Z,0
2016-04-06T01:57:38.322Z,0
2016-04-06T01:58:38.465Z,0
2016-04-06T01:59:38.421Z,0
2016-04-06T02:00:38.438Z,0
2016-04-06T02:01:38.394Z,0
2016-04-06T02:02:38.381Z,0
2016-04-06T02:03:38.321Z,0
2016-04-06T02:04:38.309Z,0
2016-04-06T02:05:38.280Z,0
2016-04-06T02:06:38.268Z,0
2016-04-06T02:07:38.239Z,0
2016-04-06T02:08:38.202Z,0
2016-04-06T02:09:38.190Z,0
2016-04-06T02:10:38.162Z,0
2016-04-06T02:11:38.133Z,0
2016-04-06T02:12:38.120Z,0
2016-04-06T02:13:38.091Z,0
2016-04-06T02:14:38.063Z,0
2016-04-06T02:15:38.051Z,0
2016-04-06T02:16:38.007Z,0
2016-04-06T02:17:37.993Z,0
2016-04-06T02:18:38.027Z,0
2016-04-06T02:19:37.951Z,0
2016-04-06T02:20:37.923Z,0
2016-04-06T02:21:37.895Z,0
2016-04-06T02:22:37.882Z,0
2016-04-06T02:23:37.869Z,0
2016-04-06T02:24:37.825Z,0
2016-04-06T02:25:37.796Z,0
2016-04-06T02:26:37.783Z,0
2016-04-06T02:27:37.786Z,0
2016-04-06T02:28:37.725Z,0
2016-04-06T02:29:37.728Z,0
2016-04-06T02:30:37.669Z,0
2016-04-06T02:31:36.922Z,0
2016-04-06T02:32:37.628Z,0
2016-04-06T02:33:37.600Z,0
2016-04-06T02:34:37.586Z,0
2016-04-06T02:35:37.558Z,0
2016-04-06T02:36:37.544Z,0
2016-04-06T02:37:37.516Z,0
2016-04-06T02:38:37.488Z,0
2016-04-06T02:39:37.474Z,0
2016-04-06T02:40:37.446Z,0
2016-04-06T02:41:37.417Z,0
2016-04-06T02:42:37.404Z,0
2016-04-06T02:43:37.376Z,0
2016-04-06T02:44:37.347Z,0
2016-04-06T02:45:37.319Z,0
2016-04-06T02:46:37.305Z,0
2016-04-06T02:47:37.277Z,0
2016-04-06T02:48:37.248Z,0
2016-04-06T02:49:37.220Z,0
2016-04-06T02:50:37.191Z,0
2016-04-06T02:51:37.163Z,0
2016-04-06T02:52:37.151Z,0
2016-04-06T02:53:37.137Z,0
2016-04-06T02:54:37.109Z,0
2016-04-06T02:55:37.079Z,0
2016-04-06T02:56:37.051Z,0
2016-04-06T02:57:37.039Z,0
2016-04-06T02:58:37.025Z,0
2016-04-06T02:59:36.981Z,0
2016-04-06T03:00:36.953Z,0
2016-04-06T03:01:36.956Z,0
2016-04-06T03:02:36.928Z,0
2016-04-06T03:03:36.898Z,0
2016-04-06T03:04:36.854Z,0
2016-04-06T03:05:36.842Z,0
2016-04-06T03:06:36.828Z,0
2016-04-06T03:07:36.800Z,0
2016-04-06T03:08:36.771Z,0
2016-04-06T03:09:36.758Z,0
2016-04-06T03:10:36.713Z,0
2016-04-06T03:11:36.716Z,0
2016-04-06T03:12:36.688Z,0
2016-04-06T03:13:36.519Z,0
2016-04-06T03:14:36.616Z,0
2016-04-06T03:15:36.602Z,0
2016-04-06T03:16:36.574Z,0
2016-04-06T03:17:36.560Z,0
2016-04-06T03:18:36.548Z,0
2016-04-06T03:19:36.519Z,0
2016-04-06T03:20:36.476Z,0
2016-04-06T03:21:36.447Z,0
2016-04-06T03:22:36.481Z,0
2016-04-06T03:23:36.405Z,0
2016-04-06T03:24:36.376Z,0
2016-04-06T03:25:36.379Z,0
2016-04-06T03:26:36.334Z,0
2016-04-06T03:27:36.337Z,0
2016-04-06T03:28:36.293Z,0
2016-04-06T03:29:36.264Z,0
2016-04-06T03:30:36.237Z,0
2016-04-06T03:31:36.208Z,0
2016-04-06T03:32:36.179Z,0
2016-04-06T03:33:36.182Z,0
2016-04-06T03:34:36.201Z,0
2016-04-06T03:35:36.125Z,0
2016-04-06T03:36:36.097Z,0
2016-04-06T03:37:36.083Z,0
2016-04-06T03:38:36.055Z,0
2016-04-06T03:39:36.026Z,0
2016-04-06T03:40:35.997Z,0
2016-04-06T03:41:36.000Z,0
2016-04-06T03:42:35.956Z,0
2016-04-06T03:43:35.928Z,0
2016-04-06T03:44:35.899Z,0
2016-04-06T03:45:35.886Z,0
2016-04-06T03:46:35.857Z,0
2016-04-06T03:47:35.829Z,0
2016-04-06T03:48:35.816Z,0
2016-04-06T03:49:35.788Z,0
2016-04-06T03:50:35.759Z,0
2016-04-06T03:51:35.746Z,0
2016-04-06T03:52:35.718Z,0
2016-04-06T03:53:35.689Z,0
2016-04-06T03:54:35.660Z,0
2016-04-06T03:55:35.648Z,0
2016-04-06T03:56:35.618Z,0
2016-04-06T03:57:35.590Z,0
2016-04-06T03:58:35.577Z,0
2016-04-06T03:59:35.534Z,0
2016-04-06T04:00:35.520Z,0
2016-04-06T04:01:35.492Z,0
2016-04-06T04:02:35.464Z,0
2016-04-06T04:03:35.450Z,0
2016-04-06T04:04:35.437Z,0
2016-04-06T04:05:35.392Z,0
2016-04-06T04:06:35.380Z,0
2016-04-06T04:07:35.352Z,0
2016-04-06T04:08:35.323Z,0
2016-04-06T04:09:35.311Z,0
2016-04-06T04:10:35.281Z,0
2016-04-06T04:11:35.253Z,0
2016-04-06T04:12:35.240Z,0
2016-04-06T04:13:35.227Z,0
2016-04-06T04:14:35.183Z,0
2016-04-06T04:15:35.155Z,0
2016-04-06T04:16:35.141Z,0
2016-04-06T04:17:35.113Z,0
2016-04-06T04:18:35.085Z,0
2016-04-06T04:19:34.930Z,0
2016-04-06T04:20:35.027Z,0
2016-04-06T04:21:35.015Z,0
2016-04-06T04:22:34.985Z,0
2016-04-06T04:23:34.957Z,0
2016-04-06T04:24:34.944Z,0
2016-04-06T04:25:34.915Z,0
2016-04-06T04:26:34.887Z,0
2016-04-06T04:27:34.874Z,0
2016-04-06T04:28:34.845Z,0
2016-04-06T04:29:34.818Z,0
2016-04-06T04:30:34.789Z,0
2016-04-06T04:31:34.760Z,0
2016-04-06T04:32:34.731Z,0
2016-04-06T04:33:34.718Z,0
2016-04-06T04:34:34.720Z,0
2016-04-06T04:35:34.723Z,0
2016-04-06T04:36:34.664Z,0
2016-04-06T04:37:34.619Z,0
2016-04-06T04:38:34.606Z,0
2016-04-06T04:39:34.578Z,0
2016-04-06T04:40:34.550Z,0
2016-04-06T04:41:34.521Z,0
2016-04-06T04:42:34.492Z,0
2016-04-06T04:43:34.495Z,0
2016-04-06T04:44:34.451Z,0
2016-04-06T04:45:34.422Z,0
2016-04-06T04:46:34.425Z,0
2016-04-06T04:47:34.380Z,0
2016-04-06T04:48:34.369Z,0
2016-04-06T04:49:34.465Z,5
2016-04-06T04:50:34.310Z,5
2016-04-06T04:51:34.282Z,5
2016-04-06T04:52:34.269Z,5
2016-04-06T04:53:34.240Z,5
2016-04-06T04:54:34.244Z,5
2016-04-06T04:55:34.215Z,5
2016-04-06T04:56:34.155Z,5
2016-04-06T04:57:34.158Z,10
2016-04-06T04:58:34.114Z,10
2016-04-06T04:59:34.085Z,10
2016-04-06T05:00:34.088Z,10
2016-04-06T05:01:34.059Z,10
2016-04-06T05:02:34.015Z,10
2016-04-06T05:03:33.986Z,15
2016-04-06T05:04:33.989Z,20
2016-04-06T05:05:33.960Z,20
2016-04-06T05:06:33.932Z,20
2016-04-06T05:07:33.904Z,25
2016-04-06T05:08:34.203Z,25
2016-04-06T05:09:33.862Z,30
2016-04-06T05:10:33.818Z,30
2016-04-06T05:11:33.805Z,40
2016-04-06T05:12:33.792Z,45
2016-04-06T05:13:33.748Z,45
2016-04-06T05:14:33.735Z,40
2016-04-06T05:15:33.706Z,45
2016-04-06T05:16:33.693Z,50
2016-04-06T05:17:33.665Z,50
2016-04-06T05:18:33.636Z,55
2016-04-06T05:19:33.624Z,60
2016-04-06T05:20:33.579Z,65
2016-04-06T05:21:33.566Z,75
2016-04-06T05:22:33.538Z,75
2016-04-06T05:23:33.540Z,80
2016-04-06T05:24:33.496Z,80
2016-04-06T05:25:33.483Z,85
2016-04-06T05:26:33.454Z,85
2016-04-06T05:27:33.426Z,85
2016-04-06T05:28:33.408Z,85
2016-04-06T05:29:33.364Z,80
2016-04-06T05:30:33.351Z,85
2016-04-06T05:31:33.323Z,90
2016-04-06T05:32:33.310Z,95
2016-04-06T05:33:33.281Z,80
2016-04-06T05:34:33.237Z,75
2016-04-06T05:35:33.224Z,70
2016-04-06T05:36:33.212Z,75
2016-04-06T05:37:33.182Z,70
2016-04-06T05:38:33.153Z,65
2016-04-06T05:39:33.126Z,60
2016-04-06T05:40:33.112Z,65
2016-04-06T05:41:33.084Z,60
2016-04-06T05:42:32.915Z,65
2016-04-06T05:43:33.042Z,65
2016-04-06T05:44:33.030Z,65
2016-04-06T05:45:32.986Z,70
2016-04-06T05:46:32.972Z,70
2016-04-06T05:47:32.944Z,80
2016-04-06T05:48:32.915Z,85
2016-04-06T05:49:32.902Z,80
2016-04-06T05:50:32.874Z,85
2016-04-06T05:51:32.844Z,90
2016-04-06T05:52:32.832Z,95
2016-04-06T05:53:32.804Z,110
2016-04-06T05:54:32.775Z,110
2016-04-06T05:55:32.746Z,105
2016-04-06T05:56:32.733Z,110
2016-04-06T05:57:32.704Z,125
2016-04-06T05:58:32.989Z,130
2016-04-06T05:59:32.664Z,135
2016-04-06T06:00:32.634Z,135
2016-04-06T06:01:32.607Z,130
2016-04-06T06:02:32.593Z,155
2016-04-06T06:03:32.576Z,160
2016-04-06T06:04:32.983Z,145
2016-04-06T06:05:32.625Z,140
2016-04-06T06:06:32.642Z,145
2016-04-06T06:07:32.660Z,155
2016-04-06T06:08:32.668Z,160
2016-04-06T06:09:32.672Z,170
2016-04-06T06:10:32.675Z,195
2016-04-06T06:11:32.662Z,215
2016-04-06T06:12:32.666Z,225
2016-04-06T06:13:32.635Z,250
2016-04-06T06:14:32.612Z,255
2016-04-06T06:15:32.605Z,235
2016-04-06T06:16:32.582Z,200
2016-04-06T06:17:32.559Z,200
2016-04-06T06:18:32.551Z,225
2016-04-06T06:19:32.524Z,265
2016-04-06T06:20:32.513Z,300
2016-04-06T06:21:32.487Z,325
2016-04-06T06:22:32.461Z,330
2016-04-06T06:23:32.450Z,325
2016-04-06T06:24:32.439Z,325
2016-04-06T06:25:32.396Z,325
2016-04-06T06:26:32.368Z,290
2016-04-06T06:27:32.355Z,300
2016-04-06T06:28:32.203Z,295
2016-04-06T06:29:32.315Z,275
2016-04-06T06:30:32.302Z,250
2016-04-06T06:31:32.259Z,215
2016-04-06T06:32:32.230Z,225
2016-04-06T06:33:32.218Z,210
2016-04-06T06:34:32.220Z,225
2016-04-06T06:35:32.176Z,270
2016-04-06T06:36:32.148Z,280
2016-04-06T06:37:32.135Z,355
2016-04-06T06:38:32.106Z,400
2016-04-06T06:39:32.234Z,390
2016-04-06T06:40:32.284Z,390
2016-04-06T06:41:32.037Z,385
2016-04-06T06:42:32.007Z,360
2016-04-06T06:43:32.010Z,350
2016-04-06T06:44:31.982Z,320
2016-04-06T06:45:31.235Z,345
2016-04-06T06:46:31.925Z,360
2016-04-06T06:47:31.895Z,400
2016-04-06T06:48:31.883Z,430
2016-04-06T06:49:31.870Z,405
2016-04-06T06:50:31.873Z,425
2016-04-06T06:51:31.828Z,405
2016-04-06T06:52:31.784Z,390
2016-04-06T06:53:31.772Z,355
2016-04-06T06:54:31.727Z,330
2016-04-06T06:55:30.980Z,310
2016-04-06T06:56:31.717Z,290
2016-04-06T06:57:31.673Z,270
2016-04-06T06:58:31.660Z,265
2016-04-06T06:59:31.646Z,300
2016-04-06T07:00:31.618Z,305
2016-04-06T07:01:31.591Z,305
2016-04-06T07:02:31.561Z,325
2016-04-06T07:03:31.549Z,380
2016-04-06T07:04:31.535Z,455
2016-04-06T07:05:31.585Z,525
2016-04-06T07:06:31.510Z,520
2016-04-06T07:07:31.449Z,515
2016-04-06T07:08:31.437Z,555
2016-04-06T07:09:31.408Z,495
2016-04-06T07:10:31.396Z,495
2016-04-06T07:11:31.367Z,550
2016-04-06T07:12:31.354Z,585
2016-04-06T07:13:31.325Z,620
2016-04-06T07:14:31.296Z,655
2016-04-06T07:15:31.127Z,550
2016-04-06T07:16:31.255Z,525
2016-04-06T07:17:31.242Z,460
2016-04-06T07:18:31.214Z,510
2016-04-06T07:19:31.184Z,630
2016-04-06T07:20:31.173Z,715
2016-04-06T07:21:31.144Z,645
2016-04-06T07:22:31.131Z,645
2016-04-06T07:23:31.103Z,610
2016-04-06T07:24:31.090Z,595
2016-04-06T07:25:31.076Z,625
2016-04-06T07:26:31.032Z,555
2016-04-06T07:27:31.019Z,525
2016-04-06T07:28:31.022Z,565
2016-04-06T07:29:30.977Z,600
2016-04-06T07:30:30.964Z,680
2016-04-06T07:31:30.952Z,590
2016-04-06T07:32:30.907Z,670
2016-04-06T07:33:30.942Z,610
2016-04-06T07:34:30.866Z,555
2016-04-06T07:35:30.853Z,475
2016-04-06T07:36:30.840Z,575
2016-04-06T07:37:30.843Z,560
2016-04-06T07:38:30.830Z,480
2016-04-06T07:39:30.755Z,490
2016-04-06T07:40:30.757Z,500
2016-04-06T07:41:30.713Z,625
2016-04-06T07:42:30.701Z,540
2016-04-06T07:43:30.671Z,615
2016-04-06T07:44:30.659Z,490
2016-04-06T07:45:30.896Z,530
2016-04-06T07:46:30.649Z,635
2016-04-06T07:47:30.604Z,715
2016-04-06T07:48:30.576Z,785
2016-04-06T07:49:30.563Z,720
2016-04-06T07:50:30.612Z,685
2016-04-06T07:51:30.521Z,710
2016-04-06T07:52:30.508Z,760
2016-04-06T07:53:30.495Z,765
2016-04-06T07:54:30.451Z,650
2016-04-06T07:55:30.438Z,670
2016-04-06T07:56:30.409Z,710
2016-04-06T07:57:30.241Z,715
2016-04-06T07:58:30.369Z,715
2016-04-06T07:59:30.339Z,725
2016-04-06T08:00:30.342Z,680
2016-04-06T08:01:30.313Z,740
2016-04-06T08:02:30.286Z,760
2016-04-06T08:03:30.288Z,715
2016-04-06T08:04:30.259Z,665
2016-04-06T08:05:30.433Z,670
2016-04-06T08:06:30.202Z,675
2016-04-06T08:07:30.189Z,720
2016-04-06T08:08:30.161Z,835
2016-04-06T08:09:30.288Z,805
2016-04-06T08:10:30.135Z,750
2016-04-06T08:11:30.107Z,815
2016-04-06T08:12:30.093Z,740
2016-04-06T08:13:30.065Z,720
2016-04-06T08:14:30.458Z,670
2016-04-06T08:15:30.039Z,740
2016-04-06T08:16:30.010Z,825
2016-04-06T08:17:29.997Z,905
2016-04-06T08:18:30.031Z,905
2016-04-06T08:19:29.956Z,815
2016-04-06T08:20:30.208Z,865
2016-04-06T08:21:30.008Z,870
2016-04-06T08:22:29.886Z,955
2016-04-06T08:23:29.873Z,895
2016-04-06T08:24:29.860Z,845
2016-04-06T08:25:29.941Z,930
2016-04-06T08:26:29.819Z,885
2016-04-06T08:27:29.789Z,715
2016-04-06T08:28:29.778Z,780
2016-04-06T08:29:29.748Z,890
2016-04-06T08:30:29.736Z,1015
2016-04-06T08:31:29.722Z,910
2016-04-06T08:32:29.694Z,795
2016-04-06T08:33:29.713Z,745
2016-04-06T08:34:29.653Z,890
2016-04-06T08:35:29.625Z,805
2016-04-06T08:36:29.627Z,820
2016-04-06T08:37:29.598Z,680
2016-04-06T08:38:29.585Z,690
2016-04-06T08:39:29.619Z,790
2016-04-06T08:40:29.560Z,770
2016-04-06T08:41:29.515Z,870
2016-04-06T08:42:29.502Z,900
2016-04-06T08:43:29.474Z,865
2016-04-06T08:44:29.493Z,930
2016-04-06T08:45:29.541Z,830
2016-04-06T08:46:29.419Z,795
2016-04-06T08:47:29.422Z,785
2016-04-06T08:48:29.393Z,775
2016-04-06T08:49:29.380Z,700
2016-04-06T08:50:29.352Z,770
2016-04-06T08:51:29.339Z,860
2016-04-06T08:52:29.310Z,895
2016-04-06T08:53:29.298Z,840
2016-04-06T08:54:29.269Z,825
2016-04-06T08:55:29.256Z,855
2016-04-06T08:56:29.243Z,810
2016-04-06T08:57:29.230Z,750
2016-04-06T08:58:29.201Z,835
2016-04-06T08:59:29.188Z,880
2016-04-06T09:00:29.176Z,895
2016-04-06T09:01:29.163Z,1035
2016-04-06T09:02:29.134Z,1010
2016-04-06T09:03:29.121Z,1180
2016-04-06T09:04:29.092Z,1065
2016-04-06T09:05:29.080Z,1090
2016-04-06T09:06:29.067Z,890
2016-04-06T09:07:29.038Z,985
2016-04-06T09:08:29.025Z,945
2016-04-06T09:09:29.012Z,870
2016-04-06T09:10:28.999Z,915
2016-04-06T09:11:29.002Z,975
2016-04-06T09:12:28.942Z,1090
2016-04-06T09:13:28.946Z,990
2016-04-06T09:14:28.916Z,975
2016-04-06T09:15:28.903Z,845
2016-04-06T09:16:28.874Z,785
2016-04-06T09:17:28.862Z,1005
2016-04-06T09:18:28.849Z,1005
2016-04-06T09:19:28.820Z,890
2016-04-06T09:20:28.808Z,760
2016-04-06T09:21:29.263Z,915
2016-04-06T09:22:28.765Z,900
2016-04-06T09:23:28.754Z,1085
2016-04-06T09:24:28.756Z,950
2016-04-06T09:25:28.728Z,855
2016-04-06T09:26:28.714Z,905
2016-04-06T09:27:29.154Z,880
2016-04-06T09:28:28.654Z,1025
2016-04-06T09:29:28.642Z,985
2016-04-06T09:30:28.613Z,1045
2016-04-06T09:31:28.616Z,1080
2016-04-06T09:32:28.603Z,945
2016-04-06T09:33:28.575Z,840
2016-04-06T09:34:28.545Z,1055
2016-04-06T09:35:28.533Z,1055
2016-04-06T09:36:28.520Z,960
2016-04-06T09:37:28.507Z,950
2016-04-06T09:38:28.478Z,1020
2016-04-06T09:39:28.450Z,1090
2016-04-06T09:40:28.530Z,1085
2016-04-06T09:41:28.455Z,1065
2016-04-06T09:42:28.447Z,1045
2016-04-06T09:43:28.402Z,1020
2016-04-06T09:44:28.374Z,880
2016-04-06T09:45:28.480Z,820
2016-04-06T09:46:28.091Z,915
2016-04-06T09:47:28.328Z,880
2016-04-06T09:48:28.331Z,785
2016-04-06T09:49:28.302Z,830
2016-04-06T09:50:28.259Z,870
2016-04-06T09:51:28.246Z,875
2016-04-06T09:52:28.233Z,980
2016-04-06T09:53:28.219Z,900
2016-04-06T09:54:28.191Z,775
2016-04-06T09:55:28.194Z,770
2016-04-06T09:56:28.149Z,500
2016-04-06T09:57:28.152Z,525
2016-04-06T09:58:28.124Z,490
2016-04-06T09:59:28.110Z,435
2016-04-06T10:00:28.082Z,575
2016-04-06T10:01:28.209Z,925
2016-04-06T10:02:28.182Z,740
2016-04-06T10:03:28.028Z,660
2016-04-06T10:04:28.031Z,710
2016-04-06T10:05:28.002Z,595
2016-04-06T10:06:28.004Z,545
2016-04-06T10:07:27.961Z,495
2016-04-06T10:08:27.948Z,495
2016-04-06T10:09:27.919Z,470
2016-04-06T10:10:27.953Z,520
2016-04-06T10:11:27.893Z,525
2016-04-06T10:12:27.880Z,535
2016-04-06T10:13:27.852Z,550
2016-04-06T10:14:27.823Z,640
2016-04-06T10:15:27.810Z,795
2016-04-06T10:16:27.797Z,955
2016-04-06T10:17:27.769Z,1110
2016-04-06T10:18:27.756Z,1220
2016-04-06T10:19:27.727Z,1195
2016-04-06T10:20:27.730Z,1145
2016-04-06T10:21:27.702Z,1050
2016-04-06T10:22:27.688Z,995
2016-04-06T10:23:27.660Z,925
2016-04-06T10:24:27.647Z,845
2016-04-06T10:25:27.634Z,925
2016-04-06T10:26:27.605Z,1100
2016-04-06T10:27:27.593Z,1095
2016-04-06T10:28:27.564Z,1065
2016-04-06T10:29:27.551Z,890
2016-04-06T10:30:27.537Z,690
2016-04-06T10:31:27.510Z,595
2016-04-06T10:32:27.496Z,605
2016-04-06T10:33:27.484Z,610
2016-04-06T10:34:27.454Z,675
2016-04-06T10:35:27.443Z,710
2016-04-06T10:36:27.429Z,690
2016-04-06T10:37:27.416Z,630
2016-04-06T10:38:27.387Z,700
2016-04-06T10:39:27.375Z,730
2016-04-06T10:40:27.362Z,695
2016-04-06T10:41:27.348Z,695
2016-04-06T10:42:27.320Z,705
2016-04-06T10:43:27.292Z,745
2016-04-06T10:44:27.278Z,710
2016-04-06T10:45:27.266Z,730
2016-04-06T10:46:27.237Z,740
2016-04-06T10:47:27.240Z,735
2016-04-06T10:48:27.212Z,715
2016-04-06T10:49:27.214Z,705
2016-04-06T10:50:27.185Z,705
2016-04-06T10:51:27.157Z,690
2016-04-06T10:52:27.144Z,695
2016-04-06T10:53:27.131Z,695
2016-04-06T10:54:27.212Z,780
2016-04-06T10:55:27.683Z,785
2016-04-06T10:56:27.093Z,845
2016-04-06T10:57:27.048Z,905
2016-04-06T10:58:27.051Z,1125
2016-04-06T10:59:27.038Z,1135
2016-04-06T11:00:27.009Z,990
2016-04-06T11:01:27.168Z,835
2016-04-06T11:02:26.967Z,845
2016-04-06T11:03:26.940Z,725
2016-04-06T11:04:26.926Z,660
2016-04-06T11:05:26.944Z,745
2016-04-06T11:06:27.025Z,830
2016-04-06T11:07:26.873Z,1015
2016-04-06T11:08:26.859Z,1060
2016-04-06T11:09:26.830Z,1030
2016-04-06T11:10:26.818Z,920
2016-04-06T11:11:26.804Z,865
2016-04-06T11:12:26.791Z,955
2016-04-06T11:13:26.779Z,965
2016-04-06T11:14:26.751Z,850
2016-04-06T11:15:26.737Z,730
2016-04-06T11:16:26.708Z,710
2016-04-06T11:17:26.695Z,850
2016-04-06T11:18:26.698Z,860
2016-04-06T11:19:26.669Z,760
2016-04-06T11:20:26.657Z,865
2016-04-06T11:21:26.644Z,925
2016-04-06T11:22:26.631Z,900
2016-04-06T11:23:26.618Z,795
2016-04-06T11:24:26.589Z,705
2016-04-06T11:25:26.561Z,700
2016-04-06T11:26:26.563Z,605
2016-04-06T11:27:26.551Z,545
2016-04-06T11:28:26.522Z,525
2016-04-06T11:29:26.493Z,555
2016-04-06T11:30:26.496Z,605
2016-04-06T11:31:26.467Z,680
2016-04-06T11:32:26.517Z,805
2016-04-06T11:33:26.426Z,860
2016-04-06T11:34:26.413Z,800
2016-04-06T11:35:26.244Z,765
2016-04-06T11:36:26.387Z,730
2016-04-06T11:37:26.359Z,715
2016-04-06T11:38:26.643Z,775
2016-04-06T11:39:26.333Z,770
2016-04-06T11:40:26.320Z,730
2016-04-06T11:41:26.306Z,690
2016-04-06T11:42:26.279Z,640
2016-04-06T11:43:26.265Z,645
2016-04-06T11:44:26.253Z,760
2016-04-06T11:45:26.224Z,1010
2016-04-06T11:46:26.070Z,1070
2016-04-06T11:47:26.198Z,1065
2016-04-06T11:48:26.233Z,1185
2016-04-06T11:49:26.156Z,1090
2016-04-06T11:50:26.159Z,960
2016-04-06T11:51:25.975Z,940
2016-04-06T11:52:26.118Z,1115
2016-04-06T11:53:26.105Z,1120
2016-04-06T11:54:26.091Z,1085
2016-04-06T11:55:26.079Z,990
2016-04-06T11:56:26.066Z,1080
2016-04-06T11:57:26.022Z,960
2016-04-06T11:58:26.025Z,955
2016-04-06T11:59:26.058Z,1005
2016-04-06T12:00:25.983Z,975
2016-04-06T12:01:25.970Z,970
2016-04-06T12:02:25.941Z,1020
2016-04-06T12:03:25.991Z,1090
2016-04-06T12:04:25.963Z,1175
2016-04-06T12:05:26.028Z,1475
2016-04-06T12:06:25.781Z,1245
2016-04-06T12:07:25.876Z,945
2016-04-06T12:08:25.872Z,815
2016-04-06T12:09:25.827Z,810
2016-04-06T12:10:25.829Z,795
2016-04-06T12:11:25.800Z,710
2016-04-06T12:12:25.788Z,645
2016-04-06T12:13:25.775Z,625
2016-04-06T12:14:25.762Z,605
2016-04-06T12:15:25.733Z,630
2016-04-06T12:16:25.721Z,620
2016-04-06T12:17:25.709Z,625
2016-04-06T12:18:25.915Z,660
2016-04-06T12:19:25.668Z,695
2016-04-06T12:20:25.656Z,700
2016-04-06T12:21:25.720Z,935
2016-04-06T12:22:25.614Z,840
2016-04-06T12:23:25.631Z,730
2016-04-06T12:24:25.587Z,805
2016-04-06T12:25:25.575Z,1025
2016-04-06T12:26:25.578Z,900
2016-04-06T12:27:25.549Z,850
2016-04-06T12:28:24.786Z,950
2016-04-06T12:29:25.507Z,1090
2016-04-06T12:30:25.510Z,925
2016-04-06T12:31:25.466Z,825
2016-04-06T12:32:25.469Z,1005
2016-04-06T12:33:25.580Z,960
2016-04-06T12:34:25.428Z,1065
2016-04-06T12:35:25.399Z,910
2016-04-06T12:36:25.463Z,760
2016-04-06T12:37:25.372Z,995
2016-04-06T12:38:25.360Z,1070
2016-04-06T12:39:25.346Z,1050
2016-04-06T12:40:25.319Z,920
2016-04-06T12:41:25.415Z,785
2016-04-06T12:42:25.371Z,790
2016-04-06T12:43:25.279Z,890
2016-04-06T12:44:25.282Z,890
2016-04-06T12:45:25.238Z,885
2016-04-06T12:46:25.226Z,855
2016-04-06T12:47:25.462Z,925
2016-04-06T12:48:25.198Z,835
2016-04-06T12:49:25.171Z,810
2016-04-06T12:50:25.173Z,830
2016-04-06T12:51:24.878Z,810
2016-04-06T12:52:25.116Z,770
2016-04-06T12:53:25.104Z,870
2016-04-06T12:54:25.090Z,815
2016-04-06T12:55:25.077Z,745
2016-04-06T12:56:25.049Z,815
2016-04-06T12:57:25.050Z,905
2016-04-06T12:58:25.023Z,980
2016-04-06T12:59:25.010Z,960
2016-04-06T13:00:24.997Z,855
2016-04-06T13:01:25.000Z,830
2016-04-06T13:02:24.972Z,855
2016-04-06T13:03:24.942Z,875
2016-04-06T13:04:24.944Z,890
2016-04-06T13:05:24.917Z,905
2016-04-06T13:06:24.857Z,995
2016-04-06T13:07:24.891Z,960
2016-04-06T13:08:24.877Z,1080
2016-04-06T13:09:24.850Z,955
2016-04-06T13:10:24.821Z,940
2016-04-06T13:11:24.807Z,965
2016-04-06T13:12:24.800Z,950
2016-04-06T13:13:25.038Z,850
2016-04-06T13:14:24.775Z,800
2016-04-06T13:15:24.746Z,850
2016-04-06T13:16:24.733Z,760
2016-04-06T13:17:24.721Z,880
2016-04-06T13:18:24.708Z,910
2016-04-06T13:19:24.710Z,935
2016-04-06T13:20:24.697Z,960
2016-04-06T13:21:24.684Z,980
2016-04-06T13:22:24.640Z,1000
2016-04-06T13:23:24.627Z,920
2016-04-06T13:24:24.615Z,740
2016-04-06T13:25:24.585Z,835
2016-04-06T13:26:24.588Z,855
2016-04-06T13:27:24.560Z,795
2016-04-06T13:28:24.578Z,765
2016-04-06T13:29:24.518Z,805
2016-04-06T13:30:24.506Z,815
2016-04-06T13:31:24.493Z,760
2016-04-06T13:32:24.495Z,725
2016-04-06T13:33:24.482Z,715
2016-04-06T13:34:24.470Z,740
2016-04-06T13:35:24.441Z,850
2016-04-06T13:36:24.428Z,985
2016-04-06T13:37:24.400Z,900
2016-04-06T13:38:24.386Z,945
2016-04-06T13:39:24.373Z,995
2016-04-06T13:40:24.361Z,920
2016-04-06T13:41:24.347Z,825
2016-04-06T13:42:24.335Z,775
2016-04-06T13:43:24.322Z,800
2016-04-06T13:44:24.293Z,940
2016-04-06T13:45:24.280Z,960
2016-04-06T13:46:24.267Z,975
2016-04-06T13:47:24.255Z,1065
2016-04-06T13:48:24.241Z,1075
2016-04-06T13:49:24.244Z,1010
2016-04-06T13:50:24.216Z,940
2016-04-06T13:51:24.218Z,855
2016-04-06T13:52:24.033Z,885
2016-04-06T13:53:24.146Z,920
2016-04-06T13:54:24.148Z,965
2016-04-06T13:55:24.135Z,895
2016-04-06T13:56:24.123Z,875
2016-04-06T13:57:24.187Z,885
2016-04-06T13:58:24.096Z,905
2016-04-06T13:59:24.099Z,940
2016-04-06T14:00:24.070Z,930
2016-04-06T14:01:23.917Z,965
2016-04-06T14:02:23.873Z,945
2016-04-06T14:03:23.985Z,985
2016-04-06T14:04:23.987Z,910
2016-04-06T14:05:23.975Z,905
2016-04-06T14:06:23.962Z,1030